createdAt,value
2019-02-21T00:01:02.641Z,7.80
2019-02-21T00:03:31.363Z,7.80
2019-02-21T00:06:00.106Z,7.80
2019-02-21T00:08:28.907Z,7.80
2019-02-21T00:10:57.606Z,7.80
2019-02-21T00:13:26.362Z,7.80
2019-02-21T00:15:55.079Z,7.80
2019-02-21T00:18:23.802Z,7.80
2019-02-21T00:20:52.521Z,7.80
2019-02-21T00:23:21.232Z,7.80
2019-02-21T00:25:50.158Z,7.80
2019-02-21T00:28:18.918Z,7.80
2019-02-21T00:30:47.618Z,7.70
2019-02-21T00:33:16.342Z,7.70
2019-02-21T00:35:45.118Z,7.70
2019-02-21T00:38:13.826Z,7.60
2019-02-21T00:40:42.535Z,7.60
2019-02-21T00:43:11.306Z,7.60
2019-02-21T00:45:40.018Z,7.60
2019-02-21T00:48:08.722Z,7.60
2019-02-21T00:50:37.754Z,7.60
2019-02-21T00:53:06.450Z,7.60
2019-02-21T00:55:37.325Z,7.60
2019-02-21T00:58:13.990Z,7.60
2019-02-21T01:00:46.599Z,7.60
2019-02-21T01:03:13.148Z,7.60
2019-02-21T01:05:41.890Z,7.60
2019-02-21T01:08:10.672Z,7.50
2019-02-21T01:10:39.398Z,7.50
2019-02-21T01:13:08.150Z,7.50
2019-02-21T01:15:36.886Z,7.50
2019-02-21T01:18:05.618Z,7.50
2019-02-21T01:20:34.364Z,7.40
2019-02-21T01:23:03.414Z,7.50
2019-02-21T01:25:32.135Z,7.50
2019-02-21T01:28:01.050Z,7.50
2019-02-21T01:30:29.762Z,7.50
2019-02-21T01:32:58.468Z,7.50
2019-02-21T01:35:27.198Z,7.50
2019-02-21T01:37:55.911Z,7.50
2019-02-21T01:40:24.650Z,7.50
2019-02-21T01:42:53.376Z,7.50
2019-02-21T01:45:22.084Z,7.50
2019-02-21T01:47:50.789Z,7.50
2019-02-21T01:50:19.518Z,7.50
2019-02-21T01:52:48.286Z,7.50
2019-02-21T01:55:16.994Z,7.50
2019-02-21T01:57:45.722Z,7.50
2019-02-21T02:00:14.510Z,7.40
2019-02-21T02:02:43.274Z,7.40
2019-02-21T02:05:11.999Z,7.30
2019-02-21T02:07:40.707Z,7.30
2019-02-21T02:10:10.794Z,7.30
2019-02-21T02:12:39.986Z,7.20
2019-02-21T02:15:08.845Z,7.20
2019-02-21T02:17:37.546Z,7.20
2019-02-21T02:20:07.688Z,7.20
2019-02-21T02:22:36.506Z,7.20
2019-02-21T02:25:05.260Z,7.30
2019-02-21T02:27:34.053Z,7.30
2019-02-21T02:30:02.904Z,7.30
2019-02-21T02:32:31.685Z,7.30
2019-02-21T02:35:00.539Z,7.30
2019-02-21T02:37:29.234Z,7.30
2019-02-21T02:39:57.982Z,7.30
2019-02-21T02:42:26.703Z,7.30
2019-02-21T02:44:55.425Z,7.30
2019-02-21T02:47:24.128Z,7.20
2019-02-21T02:49:52.869Z,7.20
2019-02-21T02:52:21.578Z,7.30
2019-02-21T02:54:50.302Z,7.30
2019-02-21T02:57:19.116Z,7.30
2019-02-21T02:59:47.838Z,7.30
2019-02-21T03:02:16.542Z,7.40
2019-02-21T03:04:45.382Z,7.30
2019-02-21T03:07:14.117Z,7.30
2019-02-21T03:09:42.907Z,7.30
2019-02-21T03:12:11.622Z,7.40
2019-02-21T03:14:40.324Z,7.40
2019-02-21T03:17:09.074Z,7.40
2019-02-21T03:19:37.810Z,7.40
2019-02-21T03:22:06.527Z,7.30
2019-02-21T03:24:35.239Z,7.30
2019-02-21T03:27:03.961Z,7.30
2019-02-21T03:29:32.668Z,7.30
2019-02-21T03:32:01.407Z,7.30
2019-02-21T03:34:30.175Z,7.30
2019-02-21T03:36:58.871Z,7.30
2019-02-21T03:39:27.627Z,7.30
2019-02-21T03:41:56.358Z,7.40
2019-02-21T03:44:25.053Z,7.40
2019-02-21T03:46:53.805Z,7.40
2019-02-21T03:49:22.717Z,7.40
2019-02-21T03:51:51.409Z,7.40
2019-02-21T03:54:20.155Z,7.40
2019-02-21T03:56:48.862Z,7.40
2019-02-21T03:59:17.603Z,7.40
2019-02-21T04:01:46.365Z,7.40
2019-02-21T04:04:15.110Z,7.40
2019-02-21T04:06:44.667Z,7.40
2019-02-21T04:09:13.409Z,7.40
2019-02-21T04:11:42.158Z,7.30
2019-02-21T04:14:10.958Z,7.30
2019-02-21T04:16:40.005Z,7.30
2019-02-21T04:19:08.749Z,7.30
2019-02-21T04:21:37.455Z,7.30
2019-02-21T04:24:06.274Z,7.30
2019-02-21T04:26:35.163Z,7.30
2019-02-21T04:29:04.240Z,7.30
2019-02-21T04:31:32.966Z,7.30
2019-02-21T04:34:02.646Z,7.30
2019-02-21T04:36:31.378Z,7.20
2019-02-21T04:39:00.160Z,7.20
2019-02-21T04:41:30.071Z,7.20
2019-02-21T04:43:59.530Z,7.10
2019-02-21T04:46:28.539Z,7.10
2019-02-21T04:48:57.350Z,7.10
2019-02-21T04:51:26.148Z,7.00
2019-02-21T04:53:54.938Z,7.00
2019-02-21T04:56:23.640Z,7.00
2019-02-21T04:58:52.343Z,7.00
2019-02-21T05:01:21.174Z,7.00
2019-02-21T05:03:49.958Z,7.10
2019-02-21T05:06:18.657Z,7.10
2019-02-21T05:08:47.631Z,7.00
2019-02-21T05:11:16.338Z,7.00
2019-02-21T05:13:45.059Z,7.00
2019-02-21T05:16:13.846Z,7.00
2019-02-21T05:18:42.689Z,7.00
2019-02-21T05:21:11.422Z,7.00
2019-02-21T05:23:40.138Z,7.10
2019-02-21T05:26:10.490Z,7.10
2019-02-21T05:28:41.154Z,7.10
2019-02-21T05:31:15.595Z,7.00
2019-02-21T05:33:55.441Z,7.00
2019-02-21T05:36:32.045Z,7.00
2019-02-21T05:39:17.986Z,7.00
2019-02-21T05:42:10.776Z,7.10
2019-02-21T05:44:45.991Z,7.10
2019-02-21T05:47:28.727Z,7.10
2019-02-21T05:50:19.619Z,7.10
2019-02-21T05:53:04.444Z,7.10
2019-02-21T05:55:42.093Z,7.10
2019-02-21T05:58:20.489Z,7.10
2019-02-21T06:01:08.534Z,7.20
2019-02-21T06:03:43.351Z,7.20
2019-02-21T06:06:28.762Z,7.20
2019-02-21T06:09:17.382Z,7.20
2019-02-21T06:12:05.262Z,7.20
2019-02-21T06:14:48.541Z,7.20
2019-02-21T06:17:34.228Z,7.20
2019-02-21T06:20:28.558Z,7.20
2019-02-21T06:23:19.625Z,7.20
2019-02-21T06:25:56.711Z,7.20
2019-02-21T06:28:30.350Z,7.20
2019-02-21T06:31:02.320Z,7.20
2019-02-21T06:33:31.600Z,7.20
2019-02-21T06:36:00.348Z,7.20
2019-02-21T06:38:29.510Z,7.30
2019-02-21T06:40:58.239Z,7.30
2019-02-21T06:43:27.044Z,7.30
2019-02-21T06:45:57.919Z,7.30
2019-02-21T06:48:26.604Z,7.30
2019-02-21T06:50:55.587Z,7.30
2019-02-21T06:53:24.430Z,7.30
2019-02-21T06:55:53.135Z,7.30
2019-02-21T06:58:21.863Z,7.30
2019-02-21T07:00:50.566Z,7.30
2019-02-21T07:03:19.273Z,7.40
2019-02-21T07:05:48.062Z,7.40
2019-02-21T07:08:16.794Z,7.40
2019-02-21T07:10:47.657Z,7.50
2019-02-21T07:13:26.139Z,7.50
2019-02-21T07:15:47.050Z,7.50
2019-02-21T07:18:15.794Z,7.60
2019-02-21T07:20:44.514Z,7.60
2019-02-21T07:23:13.226Z,7.60
2019-02-21T07:25:44.781Z,7.70
2019-02-21T07:28:15.795Z,7.70
2019-02-21T07:30:44.114Z,7.80
2019-02-21T07:33:13.364Z,7.80
2019-02-21T07:35:42.893Z,7.80
2019-02-21T07:38:11.606Z,7.90
2019-02-21T07:40:40.387Z,7.90
2019-02-21T07:43:09.179Z,7.90
2019-02-21T07:45:38.023Z,7.90
2019-02-21T07:48:06.772Z,7.90
2019-02-21T07:50:35.531Z,7.90
2019-02-21T07:53:04.427Z,7.90
2019-02-21T07:55:33.171Z,7.90
2019-02-21T07:58:03.949Z,8.00
2019-02-21T08:00:32.379Z,8.00
2019-02-21T08:03:01.110Z,8.00
2019-02-21T08:05:29.936Z,8.00
2019-02-21T08:07:58.766Z,8.00
2019-02-21T08:10:33.601Z,8.00
2019-02-21T08:12:57.959Z,8.00
2019-02-21T08:15:27.793Z,8.10
2019-02-21T08:17:56.718Z,8.20
2019-02-21T08:20:33.918Z,8.20
2019-02-21T08:22:57.001Z,8.30
2019-02-21T08:25:25.731Z,8.30
2019-02-21T08:27:54.496Z,8.40
2019-02-21T08:30:23.236Z,8.40
2019-02-21T08:33:05.315Z,8.40
2019-02-21T08:35:34.052Z,8.50
2019-02-21T08:38:02.844Z,8.60
2019-02-21T08:40:31.791Z,8.70
2019-02-21T08:43:00.518Z,8.70
2019-02-21T08:45:29.355Z,8.80
2019-02-21T08:47:58.112Z,8.80
2019-02-21T08:50:26.918Z,8.90
2019-02-21T08:52:55.642Z,8.80
2019-02-21T08:55:24.563Z,8.80
2019-02-21T08:57:53.351Z,8.80
2019-02-21T09:00:22.101Z,8.90
2019-02-21T09:02:50.866Z,8.90
2019-02-21T09:05:19.606Z,9.00
2019-02-21T09:07:48.334Z,9.00
2019-02-21T09:10:17.071Z,9.00
2019-02-21T09:12:48.423Z,9.00
2019-02-21T09:15:17.675Z,9.00
2019-02-21T09:17:47.403Z,9.00
2019-02-21T09:20:16.175Z,9.10
2019-02-21T09:22:44.907Z,9.20
2019-02-21T09:25:15.231Z,9.20
2019-02-21T09:27:44.105Z,9.10
2019-02-21T09:30:15.026Z,9.20
2019-02-21T09:32:43.820Z,9.30
2019-02-21T09:35:12.631Z,9.40
2019-02-21T09:37:41.383Z,9.60
2019-02-21T09:40:11.108Z,9.60
2019-02-21T09:42:39.861Z,9.80
2019-02-21T09:45:14.949Z,9.90
2019-02-21T09:47:43.831Z,10.00
2019-02-21T09:50:12.955Z,10.00
2019-02-21T09:52:41.711Z,10.10
2019-02-21T09:55:11.938Z,10.10
2019-02-21T09:57:40.691Z,10.20
2019-02-21T10:00:19.450Z,10.30
2019-02-21T10:02:48.217Z,10.40
2019-02-21T10:05:17.081Z,10.60
2019-02-21T10:07:45.908Z,10.70
2019-02-21T10:10:16.242Z,10.80
2019-02-21T10:12:45.126Z,10.70
2019-02-21T10:15:14.574Z,10.60
2019-02-21T10:17:44.727Z,10.50
2019-02-21T10:20:15.736Z,10.50
2019-02-21T10:22:44.543Z,10.50
2019-02-21T10:25:16.142Z,10.50
2019-02-21T10:27:44.871Z,10.40
2019-02-21T10:30:14.519Z,10.60
2019-02-21T10:32:43.277Z,10.90
2019-02-21T10:35:12.087Z,11.20
2019-02-21T10:37:40.827Z,11.60
2019-02-21T10:40:10.467Z,11.70
2019-02-21T10:42:39.234Z,11.70
2019-02-21T10:45:10.731Z,11.80
2019-02-21T10:47:39.465Z,11.70
2019-02-21T10:50:13.909Z,11.60
2019-02-21T10:52:41.737Z,11.50
2019-02-21T10:55:10.678Z,11.20
2019-02-21T10:57:39.434Z,11.00
2019-02-21T11:00:12.219Z,11.20
2019-02-21T11:02:40.971Z,11.30
2019-02-21T11:05:09.751Z,11.40
2019-02-21T11:07:38.499Z,11.30
2019-02-21T11:10:07.903Z,11.50
2019-02-21T11:12:36.638Z,11.70
2019-02-21T11:15:07.859Z,11.60
2019-02-21T11:17:36.586Z,11.70
2019-02-21T11:20:06.539Z,11.60
2019-02-21T11:22:36.198Z,11.80
2019-02-21T11:25:05.415Z,11.90
2019-02-21T11:27:34.162Z,11.80
2019-02-21T11:30:03.023Z,11.70
2019-02-21T11:32:31.829Z,11.80
2019-02-21T11:35:06.129Z,12.00
2019-02-21T11:37:42.631Z,12.00
2019-02-21T11:40:05.559Z,11.90
2019-02-21T11:42:34.655Z,11.50
2019-02-21T11:45:03.468Z,11.40
2019-02-21T11:47:32.360Z,11.60
2019-02-21T11:50:01.156Z,11.80
2019-02-21T11:52:29.876Z,11.80
2019-02-21T11:54:58.686Z,11.70
2019-02-21T11:57:27.418Z,11.70
2019-02-21T11:59:56.147Z,11.60
2019-02-21T12:02:24.963Z,11.70
2019-02-21T12:04:57.152Z,11.80
2019-02-21T12:07:25.872Z,11.90
2019-02-21T12:09:54.763Z,12.30
2019-02-21T12:12:23.489Z,12.50
2019-02-21T12:14:52.263Z,12.40
2019-02-21T12:17:21.116Z,12.40
2019-02-21T12:19:49.830Z,12.40
2019-02-21T12:22:18.555Z,12.40
2019-02-21T12:24:47.330Z,12.40
2019-02-21T12:27:16.071Z,12.30
2019-02-21T12:29:44.795Z,12.30
2019-02-21T12:32:13.532Z,12.20
2019-02-21T12:34:42.271Z,12.10
2019-02-21T12:37:11.016Z,12.20
2019-02-21T12:39:39.786Z,12.40
2019-02-21T12:42:08.571Z,12.20
2019-02-21T12:44:37.450Z,12.20
2019-02-21T12:47:06.207Z,11.90
2019-02-21T12:49:34.967Z,11.70
2019-02-21T12:52:03.727Z,11.70
2019-02-21T12:54:32.532Z,11.50
2019-02-21T12:57:01.297Z,11.30
2019-02-21T12:59:30.114Z,11.20
2019-02-21T13:01:58.849Z,11.20
2019-02-21T13:04:27.608Z,11.20
2019-02-21T13:06:56.647Z,11.10
2019-02-21T13:09:25.359Z,11.20
2019-02-21T13:11:54.125Z,11.20
2019-02-21T13:14:23.051Z,11.00
2019-02-21T13:16:51.791Z,11.10
2019-02-21T13:19:20.542Z,10.80
2019-02-21T13:21:49.274Z,10.70
2019-02-21T13:24:18.142Z,10.70
2019-02-21T13:26:46.930Z,10.60
2019-02-21T13:29:15.668Z,10.60
2019-02-21T13:31:44.416Z,10.50
2019-02-21T13:34:13.232Z,10.40
2019-02-21T13:36:41.962Z,10.20
2019-02-21T13:39:10.723Z,10.10
2019-02-21T13:41:39.743Z,10.10
2019-02-21T13:44:08.463Z,9.90
2019-02-21T13:46:40.218Z,9.90
2019-02-21T13:49:07.753Z,9.70
2019-02-21T13:51:36.504Z,9.60
2019-02-21T13:54:05.237Z,9.50
2019-02-21T13:56:33.978Z,9.40
2019-02-21T13:59:02.727Z,9.40
2019-02-21T14:01:31.457Z,9.30
2019-02-21T14:04:00.195Z,9.40
2019-02-21T14:06:28.931Z,9.30
2019-02-21T14:08:57.656Z,9.20
2019-02-21T14:11:26.376Z,9.20
2019-02-21T14:13:55.107Z,9.20
2019-02-21T14:16:23.833Z,9.10
2019-02-21T14:18:52.581Z,9.20
2019-02-21T14:21:21.341Z,9.10
2019-02-21T14:23:50.094Z,9.20
2019-02-21T14:26:18.898Z,9.20
2019-02-21T14:28:47.681Z,9.20
2019-02-21T14:31:16.389Z,9.20
2019-02-21T14:33:45.103Z,9.20
2019-02-21T14:36:18.799Z,9.10
2019-02-21T14:38:45.614Z,9.20
2019-02-21T14:41:14.414Z,9.10
2019-02-21T14:43:43.238Z,9.20
2019-02-21T14:46:11.938Z,9.20
2019-02-21T14:48:41.391Z,9.20
2019-02-21T14:51:10.694Z,9.20
2019-02-21T14:53:41.516Z,9.20
2019-02-21T14:56:10.221Z,9.20
2019-02-21T14:58:39.515Z,9.20
2019-02-21T15:01:08.318Z,9.20
2019-02-21T15:03:37.245Z,9.20
2019-02-21T15:06:06.234Z,9.20
2019-02-21T15:08:35.366Z,9.20
2019-02-21T15:11:04.671Z,9.30
2019-02-21T15:13:33.391Z,9.30
2019-02-21T15:16:02.183Z,9.20
2019-02-21T15:18:30.894Z,9.30
2019-02-21T15:20:59.667Z,9.30
2019-02-21T15:23:28.385Z,9.30
2019-02-21T15:25:57.122Z,9.30
2019-02-21T15:28:25.868Z,9.30
2019-02-21T15:30:54.703Z,9.30
2019-02-21T15:33:23.450Z,9.40
2019-02-21T15:35:52.151Z,9.40
2019-02-21T15:38:20.889Z,9.30
2019-02-21T15:40:49.630Z,9.40
2019-02-21T15:43:18.358Z,9.40
2019-02-21T15:45:47.062Z,9.40
2019-02-21T15:48:15.828Z,9.40
2019-02-21T15:50:44.578Z,9.30
2019-02-21T15:53:13.273Z,9.30
2019-02-21T15:55:42.036Z,9.30
2019-02-21T15:58:10.837Z,9.40
2019-02-21T16:00:39.694Z,9.40
2019-02-21T16:03:08.501Z,9.40
2019-02-21T16:05:37.314Z,9.30
2019-02-21T16:08:06.093Z,9.20
2019-02-21T16:10:34.821Z,9.20
2019-02-21T16:13:05.041Z,9.20
2019-02-21T16:15:34.011Z,9.20
2019-02-21T16:18:02.978Z,9.20
2019-02-21T16:20:31.720Z,9.20
2019-02-21T16:23:00.540Z,9.20
2019-02-21T16:25:29.336Z,9.20
2019-02-21T16:27:58.035Z,9.20
2019-02-21T16:30:26.730Z,9.20
2019-02-21T16:32:55.471Z,9.20
2019-02-21T16:35:24.184Z,9.20
2019-02-21T16:37:52.963Z,9.20
2019-02-21T16:40:21.761Z,9.20
2019-02-21T16:42:50.461Z,9.30
2019-02-21T16:45:19.196Z,9.20
2019-02-21T16:47:48.027Z,9.20
2019-02-21T16:50:28.848Z,9.20
2019-02-21T16:52:48.158Z,9.10
2019-02-21T16:55:18.045Z,9.20
2019-02-21T16:57:46.842Z,9.20
2019-02-21T17:00:16.599Z,9.20
2019-02-21T17:02:45.359Z,9.20
2019-02-21T17:05:14.874Z,9.20
2019-02-21T17:07:43.613Z,9.20
2019-02-21T17:10:13.598Z,9.20
2019-02-21T17:12:42.767Z,9.20
2019-02-21T17:15:12.055Z,9.20
2019-02-21T17:17:42.172Z,9.20
2019-02-21T17:20:12.372Z,9.20
2019-02-21T17:22:41.236Z,9.10
2019-02-21T17:25:10.950Z,9.20
2019-02-21T17:27:39.726Z,9.20
2019-02-21T17:30:09.668Z,9.20
2019-02-21T17:32:38.398Z,9.20
2019-02-21T17:35:07.147Z,9.20
2019-02-21T17:37:35.915Z,9.20
2019-02-21T17:40:05.067Z,9.20
2019-02-21T17:42:33.786Z,9.20
2019-02-21T17:45:02.505Z,9.20
2019-02-21T17:47:32.745Z,9.30
2019-02-21T17:50:01.784Z,9.30
2019-02-21T17:52:30.629Z,9.30
2019-02-21T17:54:59.418Z,9.30
2019-02-21T17:57:28.118Z,9.30
2019-02-21T17:59:56.854Z,9.30
2019-02-21T18:02:25.971Z,9.30
2019-02-21T18:04:54.770Z,9.30
2019-02-21T18:07:23.477Z,9.30
2019-02-21T18:09:53.770Z,9.30
2019-02-21T18:12:22.534Z,9.40
2019-02-21T18:14:51.732Z,9.30
2019-02-21T18:17:20.509Z,9.30
2019-02-21T18:19:49.242Z,9.40
2019-02-21T18:22:18.036Z,9.40
2019-02-21T18:24:47.071Z,9.40
2019-02-21T18:27:15.795Z,9.40
2019-02-21T18:29:45.176Z,9.40
2019-02-21T18:32:13.967Z,9.40
2019-02-21T18:34:43.460Z,9.40
2019-02-21T18:37:12.627Z,9.40
2019-02-21T18:39:47.511Z,9.40
2019-02-21T18:42:16.674Z,9.40
2019-02-21T18:44:47.835Z,9.40
2019-02-21T18:47:16.763Z,9.30
2019-02-21T18:49:45.663Z,9.40
2019-02-21T18:52:14.759Z,9.40
2019-02-21T18:54:43.604Z,9.20
2019-02-21T18:57:12.678Z,9.30
2019-02-21T18:59:41.542Z,9.20
2019-02-21T19:02:10.698Z,9.30
2019-02-21T19:04:40.126Z,9.30
2019-02-21T19:07:09.136Z,9.20
2019-02-21T19:09:38.542Z,9.20
2019-02-21T19:12:07.480Z,9.20
2019-02-21T19:14:36.442Z,9.20
2019-02-21T19:17:08.719Z,9.20
2019-02-21T19:19:37.875Z,9.20
2019-02-21T19:22:06.806Z,9.20
2019-02-21T19:24:37.110Z,9.10
2019-02-21T19:27:07.342Z,9.20
2019-02-21T19:29:36.255Z,9.10
2019-02-21T19:32:05.722Z,9.20
2019-02-21T19:34:34.868Z,9.20
2019-02-21T19:37:03.918Z,9.20
2019-02-21T19:39:32.708Z,9.20
2019-02-21T19:42:01.754Z,9.10
2019-02-21T19:44:30.488Z,9.10
2019-02-21T19:46:59.205Z,9.10
2019-02-21T19:49:27.982Z,9.00
2019-02-21T19:51:56.714Z,9.10
2019-02-21T19:54:25.482Z,9.10
2019-02-21T19:56:54.241Z,9.00
2019-02-21T19:59:22.966Z,9.10
2019-02-21T20:01:52.198Z,9.00
2019-02-21T20:04:21.627Z,9.00
2019-02-21T20:06:50.451Z,9.00
2019-02-21T20:09:19.295Z,9.10
2019-02-21T20:11:49.099Z,9.00
2019-02-21T20:14:18.138Z,9.00
2019-02-21T20:16:47.041Z,9.10
2019-02-21T20:19:15.838Z,9.10
2019-02-21T20:21:45.284Z,9.10
2019-02-21T20:24:14.936Z,9.10
2019-02-21T20:26:43.694Z,9.10
2019-02-21T20:29:12.570Z,9.20
2019-02-21T20:31:41.507Z,9.10
2019-02-21T20:34:12.866Z,9.20
2019-02-21T20:36:50.653Z,9.20
2019-02-21T20:39:13.001Z,9.10
2019-02-21T20:41:41.746Z,9.10
2019-02-21T20:44:10.530Z,9.10
2019-02-21T20:46:39.287Z,9.10
2019-02-21T20:49:08.110Z,9.00
2019-02-21T20:51:36.907Z,9.10
2019-02-21T20:54:05.728Z,9.00
2019-02-21T20:56:34.503Z,9.00
2019-02-21T20:59:05.274Z,9.00
2019-02-21T21:01:34.010Z,8.90
2019-02-21T21:04:02.731Z,8.90
2019-02-21T21:06:31.462Z,8.90
2019-02-21T21:09:00.214Z,8.90
2019-02-21T21:11:28.918Z,8.80
2019-02-21T21:13:57.644Z,8.90
2019-02-21T21:16:26.529Z,8.80
2019-02-21T21:18:55.311Z,8.80
2019-02-21T21:21:24.096Z,8.80
2019-02-21T21:23:52.814Z,8.80
2019-02-21T21:26:21.512Z,8.80
2019-02-21T21:28:50.266Z,8.70
2019-02-21T21:31:19.009Z,8.80
2019-02-21T21:33:47.793Z,8.70
2019-02-21T21:36:17.523Z,8.70
2019-02-21T21:38:53.640Z,8.70
2019-02-21T21:41:16.807Z,8.70
2019-02-21T21:43:45.532Z,8.60
2019-02-21T21:46:14.566Z,8.60
2019-02-21T21:48:43.273Z,8.70
2019-02-21T21:51:12.266Z,8.60
2019-02-21T21:53:41.816Z,8.60
2019-02-21T21:56:10.545Z,8.60
2019-02-21T21:58:40.866Z,8.60
2019-02-21T22:01:09.554Z,8.60
2019-02-21T22:03:38.495Z,8.60
2019-02-21T22:06:07.771Z,8.50
2019-02-21T22:08:38.039Z,8.50
2019-02-21T22:11:09.881Z,8.50
2019-02-21T22:13:38.963Z,8.50
2019-02-21T22:19:19.685Z,8.40
2019-02-21T22:22:16.239Z,8.50
2019-02-21T22:25:02.688Z,8.40
2019-02-21T22:27:33.478Z,8.40
2019-02-21T22:30:02.234Z,8.50
2019-02-21T22:32:31.003Z,8.40
2019-02-21T22:34:59.763Z,8.40
2019-02-21T22:37:28.595Z,8.40
2019-02-21T22:39:57.306Z,8.40
2019-02-21T22:42:26.089Z,8.30
2019-02-21T22:44:54.854Z,8.30
2019-02-21T22:47:23.608Z,8.30
2019-02-21T22:49:52.343Z,8.20
2019-02-21T22:52:21.103Z,8.20
2019-02-21T22:54:49.822Z,8.20
2019-02-21T22:57:18.626Z,8.20
2019-02-21T22:59:47.338Z,8.20
2019-02-21T23:02:16.599Z,8.20
2019-02-21T23:05:01.958Z,8.20
2019-02-21T23:07:56.222Z,8.10
2019-02-21T23:10:24.966Z,8.10
2019-02-21T23:12:53.670Z,8.00
2019-02-21T23:15:22.391Z,8.00
2019-02-21T23:17:51.118Z,8.10
2019-02-21T23:20:20.109Z,8.00
2019-02-21T23:22:48.810Z,8.00
2019-02-21T23:25:17.546Z,8.00
2019-02-21T23:27:46.247Z,8.00
2019-02-21T23:30:15.014Z,8.00
2019-02-21T23:32:43.770Z,7.90
2019-02-21T23:35:18.054Z,7.90
2019-02-21T23:37:46.778Z,7.90
2019-02-21T23:40:15.515Z,7.90
2019-02-21T23:42:44.250Z,8.00
2019-02-21T23:45:13.038Z,7.90
2019-02-21T23:47:49.384Z,7.90
2019-02-21T23:50:12.199Z,7.90
2019-02-21T23:52:40.934Z,7.90
2019-02-21T23:55:09.695Z,7.80
2019-02-21T23:57:38.393Z,7.90
